sensor_id;sensor_type;location;lat;lon;timestamp;P1;durP1;ratioP1;P2;durP2;ratioP2
76396;SDS011;66045;51.622;5.526;2022-12-29T00:01:53;1.75;;;1.30;;
76396;SDS011;66045;51.622;5.526;2022-12-29T00:04:18;2.80;;;1.30;;
76396;SDS011;66045;51.622;5.526;2022-12-29T00:06:44;3.00;;;1.30;;
76396;SDS011;66045;51.622;5.526;2022-12-29T00:09:12;1.60;;;1.25;;
76396;SDS011;66045;51.622;5.526;2022-12-29T00:11:40;1.92;;;1.30;;
76396;SDS011;66045;51.622;5.526;2022-12-29T00:14:07;2.78;;;1.50;;
76396;SDS011;66045;51.622;5.526;2022-12-29T00:16:53;2.83;;;1.40;;
76396;SDS011;66045;51.622;5.526;2022-12-29T00:19:18;1.25;;;1.15;;
76396;SDS011;66045;51.622;5.526;2022-12-29T00:22:02;1.83;;;1.05;;
76396;SDS011;66045;51.622;5.526;2022-12-29T00:24:46;1.70;;;1.35;;
76396;SDS011;66045;51.622;5.526;2022-12-29T00:27:30;1.83;;;1.30;;
76396;SDS011;66045;51.622;5.526;2022-12-29T00:30:22;1.45;;;0.95;;
76396;SDS011;66045;51.622;5.526;2022-12-29T00:33:15;2.33;;;1.30;;
76396;SDS011;66045;51.622;5.526;2022-12-29T00:36:20;3.20;;;1.25;;
76396;SDS011;66045;51.622;5.526;2022-12-29T00:39:02;2.17;;;1.27;;
76396;SDS011;66045;51.622;5.526;2022-12-29T00:41:49;1.95;;;1.20;;
76396;SDS011;66045;51.622;5.526;2022-12-29T00:44:33;1.75;;;1.10;;
76396;SDS011;66045;51.622;5.526;2022-12-29T00:46:59;3.35;;;1.20;;
76396;SDS011;66045;51.622;5.526;2022-12-29T00:49:29;1.42;;;1.10;;
76396;SDS011;66045;51.622;5.526;2022-12-29T00:52:03;1.85;;;1.35;;
76396;SDS011;66045;51.622;5.526;2022-12-29T00:54:31;1.90;;;1.02;;
76396;SDS011;66045;51.622;5.526;2022-12-29T00:57:02;3.83;;;1.13;;
76396;SDS011;66045;51.622;5.526;2022-12-29T00:59:28;2.95;;;1.40;;
76396;SDS011;66045;51.622;5.526;2022-12-29T01:01:54;1.65;;;1.42;;
76396;SDS011;66045;51.622;5.526;2022-12-29T01:04:20;1.52;;;1.00;;
76396;SDS011;66045;51.622;5.526;2022-12-29T01:06:46;2.35;;;1.20;;
76396;SDS011;66045;51.622;5.526;2022-12-29T01:09:12;2.38;;;1.17;;
76396;SDS011;66045;51.622;5.526;2022-12-29T01:11:56;2.33;;;1.20;;
76396;SDS011;66045;51.622;5.526;2022-12-29T01:14:22;2.17;;;1.25;;
76396;SDS011;66045;51.622;5.526;2022-12-29T01:16:48;1.67;;;1.02;;
76396;SDS011;66045;51.622;5.526;2022-12-29T01:19:14;1.73;;;1.20;;
76396;SDS011;66045;51.622;5.526;2022-12-29T01:21:41;1.63;;;1.00;;
76396;SDS011;66045;51.622;5.526;2022-12-29T01:24:06;1.05;;;0.95;;
76396;SDS011;66045;51.622;5.526;2022-12-29T01:26:31;1.23;;;1.00;;
76396;SDS011;66045;51.622;5.526;2022-12-29T01:28:57;1.67;;;1.00;;
76396;SDS011;66045;51.622;5.526;2022-12-29T01:31:22;1.52;;;0.98;;
76396;SDS011;66045;51.622;5.526;2022-12-29T01:33:48;2.17;;;1.48;;
76396;SDS011;66045;51.622;5.526;2022-12-29T01:36:14;1.63;;;1.20;;
76396;SDS011;66045;51.622;5.526;2022-12-29T01:38:40;2.38;;;1.08;;
76396;SDS011;66045;51.622;5.526;2022-12-29T01:41:07;2.03;;;1.08;;
76396;SDS011;66045;51.622;5.526;2022-12-29T01:48:39;1.30;;;1.10;;
76396;SDS011;66045;51.622;5.526;2022-12-29T01:51:05;1.50;;;1.00;;
76396;SDS011;66045;51.622;5.526;2022-12-29T01:53:31;1.50;;;0.90;;
76396;SDS011;66045;51.622;5.526;2022-12-29T01:56:01;1.33;;;1.20;;
76396;SDS011;66045;51.622;5.526;2022-12-29T01:58:32;1.38;;;0.90;;
76396;SDS011;66045;51.622;5.526;2022-12-29T02:01:00;1.60;;;1.00;;
76396;SDS011;66045;51.622;5.526;2022-12-29T02:03:27;2.45;;;1.00;;
76396;SDS011;66045;51.622;5.526;2022-12-29T02:06:13;1.20;;;0.90;;
76396;SDS011;66045;51.622;5.526;2022-12-29T02:08:43;3.30;;;1.00;;
76396;SDS011;66045;51.622;5.526;2022-12-29T02:11:12;1.77;;;1.08;;
76396;SDS011;66045;51.622;5.526;2022-12-29T02:13:37;2.17;;;1.00;;
76396;SDS011;66045;51.622;5.526;2022-12-29T02:19:00;1.42;;;1.10;;
76396;SDS011;66045;51.622;5.526;2022-12-29T02:35:14;0.90;;;0.75;;
76396;SDS011;66045;51.622;5.526;2022-12-29T02:40:52;1.38;;;1.02;;
76396;SDS011;66045;51.622;5.526;2022-12-29T02:46:17;2.88;;;1.02;;
76396;SDS011;66045;51.622;5.526;2022-12-29T02:51:53;1.30;;;1.05;;
76396;SDS011;66045;51.622;5.526;2022-12-29T02:54:23;1.95;;;0.90;;
76396;SDS011;66045;51.622;5.526;2022-12-29T02:57:15;1.10;;;0.70;;
76396;SDS011;66045;51.622;5.526;2022-12-29T02:59:51;2.30;;;0.80;;
76396;SDS011;66045;51.622;5.526;2022-12-29T03:02:26;1.02;;;0.75;;
76396;SDS011;66045;51.622;5.526;2022-12-29T03:10:59;1.98;;;0.70;;
76396;SDS011;66045;51.622;5.526;2022-12-29T03:13:44;1.35;;;0.93;;
76396;SDS011;66045;51.622;5.526;2022-12-29T03:19:14;1.65;;;0.88;;
76396;SDS011;66045;51.622;5.526;2022-12-29T03:21:47;0.77;;;0.70;;
76396;SDS011;66045;51.622;5.526;2022-12-29T03:24:37;1.98;;;1.10;;
76396;SDS011;66045;51.622;5.526;2022-12-29T03:27:06;1.75;;;1.00;;
76396;SDS011;66045;51.622;5.526;2022-12-29T03:32:04;1.42;;;0.75;;
76396;SDS011;66045;51.622;5.526;2022-12-29T03:34:32;0.80;;;0.70;;
76396;SDS011;66045;51.622;5.526;2022-12-29T03:37:05;3.20;;;1.02;;
76396;SDS011;66045;51.622;5.526;2022-12-29T03:39:35;0.95;;;0.73;;
76396;SDS011;66045;51.622;5.526;2022-12-29T03:42:04;0.95;;;0.80;;
76396;SDS011;66045;51.622;5.526;2022-12-29T03:44:38;1.15;;;0.90;;
76396;SDS011;66045;51.622;5.526;2022-12-29T03:47:06;1.35;;;1.00;;
76396;SDS011;66045;51.622;5.526;2022-12-29T03:49:32;1.42;;;0.75;;
76396;SDS011;66045;51.622;5.526;2022-12-29T03:51:58;1.42;;;0.77;;
76396;SDS011;66045;51.622;5.526;2022-12-29T03:54:23;1.05;;;0.95;;
76396;SDS011;66045;51.622;5.526;2022-12-29T03:56:49;0.60;;;0.60;;
76396;SDS011;66045;51.622;5.526;2022-12-29T03:59:14;1.52;;;0.93;;
76396;SDS011;66045;51.622;5.526;2022-12-29T04:01:40;1.13;;;0.60;;
76396;SDS011;66045;51.622;5.526;2022-12-29T04:04:05;0.70;;;0.70;;
76396;SDS011;66045;51.622;5.526;2022-12-29T04:06:31;1.08;;;0.85;;
76396;SDS011;66045;51.622;5.526;2022-12-29T04:08:56;0.88;;;0.73;;
76396;SDS011;66045;51.622;5.526;2022-12-29T04:11:21;2.20;;;0.70;;
76396;SDS011;66045;51.622;5.526;2022-12-29T04:13:47;1.13;;;0.77;;
76396;SDS011;66045;51.622;5.526;2022-12-29T04:16:12;1.25;;;0.80;;
76396;SDS011;66045;51.622;5.526;2022-12-29T04:18:37;1.70;;;0.80;;
76396;SDS011;66045;51.622;5.526;2022-12-29T04:21:03;1.02;;;0.80;;
76396;SDS011;66045;51.622;5.526;2022-12-29T04:23:30;1.45;;;0.70;;
76396;SDS011;66045;51.622;5.526;2022-12-29T04:25:57;1.83;;;0.93;;
76396;SDS011;66045;51.622;5.526;2022-12-29T04:28:23;1.45;;;0.70;;
76396;SDS011;66045;51.622;5.526;2022-12-29T04:30:49;0.82;;;0.75;;
76396;SDS011;66045;51.622;5.526;2022-12-29T04:33:14;1.80;;;0.70;;
76396;SDS011;66045;51.622;5.526;2022-12-29T04:35:40;1.20;;;0.73;;
76396;SDS011;66045;51.622;5.526;2022-12-29T04:38:06;2.13;;;0.80;;
76396;SDS011;66045;51.622;5.526;2022-12-29T04:40:31;0.95;;;0.75;;
76396;SDS011;66045;51.622;5.526;2022-12-29T04:42:57;0.82;;;0.68;;
76396;SDS011;66045;51.622;5.526;2022-12-29T04:53:24;1.77;;;0.93;;
76396;SDS011;66045;51.622;5.526;2022-12-29T04:55:50;0.85;;;0.60;;
76396;SDS011;66045;51.622;5.526;2022-12-29T04:58:17;0.77;;;0.70;;
76396;SDS011;66045;51.622;5.526;2022-12-29T05:00:46;2.10;;;0.95;;
76396;SDS011;66045;51.622;5.526;2022-12-29T05:03:11;0.98;;;0.90;;
76396;SDS011;66045;51.622;5.526;2022-12-29T05:05:37;2.03;;;0.80;;
76396;SDS011;66045;51.622;5.526;2022-12-29T05:08:02;1.17;;;0.80;;
76396;SDS011;66045;51.622;5.526;2022-12-29T05:10:28;0.70;;;0.60;;
76396;SDS011;66045;51.622;5.526;2022-12-29T05:12:53;1.13;;;0.70;;
76396;SDS011;66045;51.622;5.526;2022-12-29T05:15:19;0.82;;;0.70;;
76396;SDS011;66045;51.622;5.526;2022-12-29T05:17:44;1.05;;;0.95;;
76396;SDS011;66045;51.622;5.526;2022-12-29T05:20:10;1.40;;;0.52;;
76396;SDS011;66045;51.622;5.526;2022-12-29T05:22:35;1.25;;;0.47;;
76396;SDS011;66045;51.622;5.526;2022-12-29T05:25:01;1.65;;;0.77;;
76396;SDS011;66045;51.622;5.526;2022-12-29T05:27:26;1.88;;;0.90;;
76396;SDS011;66045;51.622;5.526;2022-12-29T05:29:52;1.90;;;0.70;;
76396;SDS011;66045;51.622;5.526;2022-12-29T05:32:17;0.95;;;0.60;;
76396;SDS011;66045;51.622;5.526;2022-12-29T05:34:42;0.82;;;0.60;;
76396;SDS011;66045;51.622;5.526;2022-12-29T05:37:08;0.98;;;0.73;;
76396;SDS011;66045;51.622;5.526;2022-12-29T05:39:33;0.75;;;0.60;;
76396;SDS011;66045;51.622;5.526;2022-12-29T05:41:59;1.45;;;0.70;;
76396;SDS011;66045;51.622;5.526;2022-12-29T05:44:24;1.52;;;0.60;;
76396;SDS011;66045;51.622;5.526;2022-12-29T05:46:49;1.05;;;0.60;;
76396;SDS011;66045;51.622;5.526;2022-12-29T05:49:15;0.98;;;0.60;;
76396;SDS011;66045;51.622;5.526;2022-12-29T05:51:41;1.13;;;0.60;;
76396;SDS011;66045;51.622;5.526;2022-12-29T05:54:06;0.57;;;0.40;;
76396;SDS011;66045;51.622;5.526;2022-12-29T05:56:32;0.93;;;0.65;;
76396;SDS011;66045;51.622;5.526;2022-12-29T05:58:57;1.77;;;0.70;;
76396;SDS011;66045;51.622;5.526;2022-12-29T06:01:22;0.68;;;0.50;;
76396;SDS011;66045;51.622;5.526;2022-12-29T06:03:48;1.65;;;0.63;;
76396;SDS011;66045;51.622;5.526;2022-12-29T06:06:13;1.77;;;0.80;;
76396;SDS011;66045;51.622;5.526;2022-12-29T06:08:38;2.15;;;0.60;;
76396;SDS011;66045;51.622;5.526;2022-12-29T06:11:04;1.38;;;0.70;;
76396;SDS011;66045;51.622;5.526;2022-12-29T06:13:29;1.25;;;0.70;;
76396;SDS011;66045;51.622;5.526;2022-12-29T06:15:55;1.40;;;0.57;;
76396;SDS011;66045;51.622;5.526;2022-12-29T06:18:20;1.52;;;0.70;;
76396;SDS011;66045;51.622;5.526;2022-12-29T06:20:46;1.17;;;0.60;;
76396;SDS011;66045;51.622;5.526;2022-12-29T06:23:11;1.30;;;0.73;;
76396;SDS011;66045;51.622;5.526;2022-12-29T06:25:38;2.10;;;0.75;;
76396;SDS011;66045;51.622;5.526;2022-12-29T06:28:03;1.35;;;0.63;;
76396;SDS011;66045;51.622;5.526;2022-12-29T06:30:30;1.85;;;0.73;;
76396;SDS011;66045;51.622;5.526;2022-12-29T06:32:55;1.17;;;0.60;;
76396;SDS011;66045;51.622;5.526;2022-12-29T06:35:21;1.38;;;0.63;;
76396;SDS011;66045;51.622;5.526;2022-12-29T06:37:49;1.45;;;0.68;;
76396;SDS011;66045;51.622;5.526;2022-12-29T06:40:15;1.63;;;0.60;;
76396;SDS011;66045;51.622;5.526;2022-12-29T06:42:40;1.67;;;0.50;;
76396;SDS011;66045;51.622;5.526;2022-12-29T06:45:06;0.93;;;0.65;;
76396;SDS011;66045;51.622;5.526;2022-12-29T06:47:32;1.73;;;0.70;;
76396;SDS011;66045;51.622;5.526;2022-12-29T06:49:58;1.45;;;0.70;;
76396;SDS011;66045;51.622;5.526;2022-12-29T06:52:23;2.08;;;0.88;;
76396;SDS011;66045;51.622;5.526;2022-12-29T06:54:49;2.25;;;0.80;;
76396;SDS011;66045;51.622;5.526;2022-12-29T06:57:15;0.80;;;0.50;;
76396;SDS011;66045;51.622;5.526;2022-12-29T06:59:40;1.52;;;0.70;;
76396;SDS011;66045;51.622;5.526;2022-12-29T07:02:05;1.58;;;0.73;;
76396;SDS011;66045;51.622;5.526;2022-12-29T07:04:31;1.65;;;0.80;;
76396;SDS011;66045;51.622;5.526;2022-12-29T07:06:56;1.88;;;0.60;;
76396;SDS011;66045;51.622;5.526;2022-12-29T07:09:21;0.82;;;0.55;;
76396;SDS011;66045;51.622;5.526;2022-12-29T07:11:47;1.95;;;0.73;;
76396;SDS011;66045;51.622;5.526;2022-12-29T07:14:12;2.85;;;0.75;;
76396;SDS011;66045;51.622;5.526;2022-12-29T07:16:38;1.88;;;0.80;;
76396;SDS011;66045;51.622;5.526;2022-12-29T07:19:04;1.65;;;0.80;;
76396;SDS011;66045;51.622;5.526;2022-12-29T07:21:29;1.58;;;0.60;;
76396;SDS011;66045;51.622;5.526;2022-12-29T07:23:55;2.75;;;0.50;;
76396;SDS011;66045;51.622;5.526;2022-12-29T07:26:20;1.13;;;0.73;;
76396;SDS011;66045;51.622;5.526;2022-12-29T07:28:45;1.33;;;0.65;;
76396;SDS011;66045;51.622;5.526;2022-12-29T07:31:15;2.10;;;0.70;;
76396;SDS011;66045;51.622;5.526;2022-12-29T07:33:42;1.27;;;0.60;;
76396;SDS011;66045;51.622;5.526;2022-12-29T07:36:08;1.48;;;0.90;;
76396;SDS011;66045;51.622;5.526;2022-12-29T07:38:34;1.13;;;0.73;;
76396;SDS011;66045;51.622;5.526;2022-12-29T07:40:59;1.35;;;0.63;;
76396;SDS011;66045;51.622;5.526;2022-12-29T07:43:26;4.22;;;0.70;;
76396;SDS011;66045;51.622;5.526;2022-12-29T07:45:51;2.17;;;0.80;;
76396;SDS011;66045;51.622;5.526;2022-12-29T07:48:17;3.95;;;0.70;;
76396;SDS011;66045;51.622;5.526;2022-12-29T07:50:42;2.47;;;0.70;;
76396;SDS011;66045;51.622;5.526;2022-12-29T07:53:08;4.20;;;0.68;;
76396;SDS011;66045;51.622;5.526;2022-12-29T07:55:33;2.25;;;0.60;;
76396;SDS011;66045;51.622;5.526;2022-12-29T07:57:58;5.82;;;1.00;;
76396;SDS011;66045;51.622;5.526;2022-12-29T08:00:24;1.55;;;0.50;;
76396;SDS011;66045;51.622;5.526;2022-12-29T08:02:49;4.45;;;0.73;;
76396;SDS011;66045;51.622;5.526;2022-12-29T08:05:15;4.28;;;0.85;;
76396;SDS011;66045;51.622;5.526;2022-12-29T08:07:43;3.70;;;0.75;;
76396;SDS011;66045;51.622;5.526;2022-12-29T08:10:10;6.35;;;1.10;;
76396;SDS011;66045;51.622;5.526;2022-12-29T08:12:37;3.03;;;0.90;;
76396;SDS011;66045;51.622;5.526;2022-12-29T08:15:03;5.85;;;1.17;;
76396;SDS011;66045;51.622;5.526;2022-12-29T08:17:29;7.30;;;1.00;;
76396;SDS011;66045;51.622;5.526;2022-12-29T08:19:54;7.05;;;0.90;;
76396;SDS011;66045;51.622;5.526;2022-12-29T08:22:20;5.65;;;1.08;;
76396;SDS011;66045;51.622;5.526;2022-12-29T08:24:45;8.15;;;1.30;;
76396;SDS011;66045;51.622;5.526;2022-12-29T08:27:10;7.20;;;1.25;;
76396;SDS011;66045;51.622;5.526;2022-12-29T08:29:35;7.15;;;1.45;;
76396;SDS011;66045;51.622;5.526;2022-12-29T08:32:01;8.65;;;2.15;;
76396;SDS011;66045;51.622;5.526;2022-12-29T08:34:26;11.95;;;1.50;;
76396;SDS011;66045;51.622;5.526;2022-12-29T08:36:52;10.65;;;1.55;;
76396;SDS011;66045;51.622;5.526;2022-12-29T08:39:17;11.68;;;2.10;;
76396;SDS011;66045;51.622;5.526;2022-12-29T08:41:42;16.55;;;2.13;;
76396;SDS011;66045;51.622;5.526;2022-12-29T08:44:08;10.93;;;1.70;;
76396;SDS011;66045;51.622;5.526;2022-12-29T08:46:36;10.70;;;1.58;;
76396;SDS011;66045;51.622;5.526;2022-12-29T08:49:02;7.63;;;1.60;;
76396;SDS011;66045;51.622;5.526;2022-12-29T08:51:27;11.65;;;2.08;;
76396;SDS011;66045;51.622;5.526;2022-12-29T08:53:52;12.43;;;1.65;;
76396;SDS011;66045;51.622;5.526;2022-12-29T08:56:18;9.43;;;1.70;;
76396;SDS011;66045;51.622;5.526;2022-12-29T08:58:43;9.77;;;1.60;;
76396;SDS011;66045;51.622;5.526;2022-12-29T09:01:09;12.45;;;1.83;;
76396;SDS011;66045;51.622;5.526;2022-12-29T09:03:35;13.77;;;1.83;;
76396;SDS011;66045;51.622;5.526;2022-12-29T09:06:00;9.60;;;1.42;;
76396;SDS011;66045;51.622;5.526;2022-12-29T09:08:26;11.60;;;1.85;;
76396;SDS011;66045;51.622;5.526;2022-12-29T09:10:51;11.05;;;1.88;;
76396;SDS011;66045;51.622;5.526;2022-12-29T09:13:17;9.27;;;1.70;;
76396;SDS011;66045;51.622;5.526;2022-12-29T09:15:43;10.65;;;2.00;;
76396;SDS011;66045;51.622;5.526;2022-12-29T09:18:09;9.68;;;1.95;;
76396;SDS011;66045;51.622;5.526;2022-12-29T09:20:35;10.18;;;1.63;;
76396;SDS011;66045;51.622;5.526;2022-12-29T09:23:00;7.55;;;1.85;;
76396;SDS011;66045;51.622;5.526;2022-12-29T09:25:26;12.82;;;2.10;;
76396;SDS011;66045;51.622;5.526;2022-12-29T09:27:52;8.93;;;1.45;;
76396;SDS011;66045;51.622;5.526;2022-12-29T09:30:18;6.28;;;1.70;;
76396;SDS011;66045;51.622;5.526;2022-12-29T09:32:44;8.18;;;1.52;;
76396;SDS011;66045;51.622;5.526;2022-12-29T09:35:10;8.32;;;1.73;;
76396;SDS011;66045;51.622;5.526;2022-12-29T09:37:36;10.60;;;1.80;;
76396;SDS011;66045;51.622;5.526;2022-12-29T09:40:01;9.48;;;1.70;;
76396;SDS011;66045;51.622;5.526;2022-12-29T09:48:06;10.43;;;1.73;;
76396;SDS011;66045;51.622;5.526;2022-12-29T09:50:46;7.20;;;1.55;;
76396;SDS011;66045;51.622;5.526;2022-12-29T09:53:17;8.43;;;1.40;;
76396;SDS011;66045;51.622;5.526;2022-12-29T09:55:51;8.20;;;1.70;;
76396;SDS011;66045;51.622;5.526;2022-12-29T09:58:39;7.00;;;1.45;;
76396;SDS011;66045;51.622;5.526;2022-12-29T10:01:16;7.00;;;1.48;;
76396;SDS011;66045;51.622;5.526;2022-12-29T10:04:15;8.65;;;1.75;;
76396;SDS011;66045;51.622;5.526;2022-12-29T10:06:51;7.88;;;1.73;;
76396;SDS011;66045;51.622;5.526;2022-12-29T10:23:34;8.57;;;1.65;;
76396;SDS011;66045;51.622;5.526;2022-12-29T10:26:03;6.50;;;1.42;;
76396;SDS011;66045;51.622;5.526;2022-12-29T10:28:40;7.43;;;1.50;;
76396;SDS011;66045;51.622;5.526;2022-12-29T10:31:25;11.23;;;2.10;;
76396;SDS011;66045;51.622;5.526;2022-12-29T10:33:58;8.82;;;1.45;;
76396;SDS011;66045;51.622;5.526;2022-12-29T10:36:41;7.50;;;1.50;;
76396;SDS011;66045;51.622;5.526;2022-12-29T10:39:19;4.85;;;1.20;;
76396;SDS011;66045;51.622;5.526;2022-12-29T10:41:46;5.75;;;1.40;;
76396;SDS011;66045;51.622;5.526;2022-12-29T10:44:27;6.72;;;1.30;;
76396;SDS011;66045;51.622;5.526;2022-12-29T10:46:57;8.05;;;1.85;;
76396;SDS011;66045;51.622;5.526;2022-12-29T10:49:26;5.45;;;1.55;;
76396;SDS011;66045;51.622;5.526;2022-12-29T10:51:54;8.07;;;1.55;;
76396;SDS011;66045;51.622;5.526;2022-12-29T10:54:42;4.13;;;1.35;;
76396;SDS011;66045;51.622;5.526;2022-12-29T10:59:55;5.18;;;1.40;;
76396;SDS011;66045;51.622;5.526;2022-12-29T11:07:42;9.95;;;1.55;;
76396;SDS011;66045;51.622;5.526;2022-12-29T11:12:41;10.18;;;1.95;;
76396;SDS011;66045;51.622;5.526;2022-12-29T11:15:20;7.13;;;1.55;;
76396;SDS011;66045;51.622;5.526;2022-12-29T11:17:49;6.60;;;1.38;;
76396;SDS011;66045;51.622;5.526;2022-12-29T11:20:35;6.80;;;1.30;;
76396;SDS011;66045;51.622;5.526;2022-12-29T11:23:03;7.95;;;1.70;;
76396;SDS011;66045;51.622;5.526;2022-12-29T11:25:30;13.65;;;1.55;;
76396;SDS011;66045;51.622;5.526;2022-12-29T11:27:57;10.00;;;1.77;;
76396;SDS011;66045;51.622;5.526;2022-12-29T11:30:28;7.13;;;1.50;;
76396;SDS011;66045;51.622;5.526;2022-12-29T11:32:55;6.18;;;1.65;;
76396;SDS011;66045;51.622;5.526;2022-12-29T11:37:56;7.68;;;1.60;;
76396;SDS011;66045;51.622;5.526;2022-12-29T11:40:23;5.40;;;1.45;;
76396;SDS011;66045;51.622;5.526;2022-12-29T11:47:47;7.78;;;1.45;;
76396;SDS011;66045;51.622;5.526;2022-12-29T11:50:18;8.00;;;1.83;;
76396;SDS011;66045;51.622;5.526;2022-12-29T11:52:46;8.55;;;1.40;;
76396;SDS011;66045;51.622;5.526;2022-12-29T11:55:19;6.97;;;1.90;;
76396;SDS011;66045;51.622;5.526;2022-12-29T11:57:47;6.68;;;1.60;;
76396;SDS011;66045;51.622;5.526;2022-12-29T12:00:18;5.10;;;1.42;;
76396;SDS011;66045;51.622;5.526;2022-12-29T12:02:56;9.80;;;2.08;;
76396;SDS011;66045;51.622;5.526;2022-12-29T12:05:35;5.63;;;1.53;;
76396;SDS011;66045;51.622;5.526;2022-12-29T12:10:52;6.25;;;1.45;;
76396;SDS011;66045;51.622;5.526;2022-12-29T12:13:29;5.90;;;1.58;;
76396;SDS011;66045;51.622;5.526;2022-12-29T12:23:59;7.80;;;1.52;;
76396;SDS011;66045;51.622;5.526;2022-12-29T12:26:34;6.75;;;1.42;;
76396;SDS011;66045;51.622;5.526;2022-12-29T12:29:08;6.15;;;1.52;;
76396;SDS011;66045;51.622;5.526;2022-12-29T12:31:59;10.15;;;1.80;;
76396;SDS011;66045;51.622;5.526;2022-12-29T12:34:35;5.60;;;1.40;;
76396;SDS011;66045;51.622;5.526;2022-12-29T12:51:23;4.53;;;1.45;;
76396;SDS011;66045;51.622;5.526;2022-12-29T12:59:13;3.85;;;1.25;;
76396;SDS011;66045;51.622;5.526;2022-12-29T13:05:00;6.00;;;1.40;;
76396;SDS011;66045;51.622;5.526;2022-12-29T13:13:28;3.72;;;1.35;;
76396;SDS011;66045;51.622;5.526;2022-12-29T13:16:10;3.75;;;1.13;;
76396;SDS011;66045;51.622;5.526;2022-12-29T13:21:34;6.22;;;1.42;;
76396;SDS011;66045;51.622;5.526;2022-12-29T13:24:16;6.28;;;1.52;;
76396;SDS011;66045;51.622;5.526;2022-12-29T13:31:50;5.65;;;1.27;;
76396;SDS011;66045;51.622;5.526;2022-12-29T13:37:10;7.57;;;1.35;;
76396;SDS011;66045;51.622;5.526;2022-12-29T13:39:59;6.72;;;1.45;;
76396;SDS011;66045;51.622;5.526;2022-12-29T13:42:29;5.63;;;1.45;;
76396;SDS011;66045;51.622;5.526;2022-12-29T13:45:05;5.13;;;1.35;;
76396;SDS011;66045;51.622;5.526;2022-12-29T13:47:40;3.53;;;1.05;;
76396;SDS011;66045;51.622;5.526;2022-12-29T13:50:13;4.88;;;1.25;;
76396;SDS011;66045;51.622;5.526;2022-12-29T13:58:14;4.20;;;1.08;;
76396;SDS011;66045;51.622;5.526;2022-12-29T14:00:53;3.78;;;1.30;;
76396;SDS011;66045;51.622;5.526;2022-12-29T14:08:44;3.50;;;1.10;;
76396;SDS011;66045;51.622;5.526;2022-12-29T14:11:10;4.18;;;1.25;;
76396;SDS011;66045;51.622;5.526;2022-12-29T14:13:39;4.57;;;1.20;;
76396;SDS011;66045;51.622;5.526;2022-12-29T14:16:08;4.20;;;1.38;;
76396;SDS011;66045;51.622;5.526;2022-12-29T14:18:50;3.65;;;1.10;;
76396;SDS011;66045;51.622;5.526;2022-12-29T14:21:20;3.20;;;1.05;;
76396;SDS011;66045;51.622;5.526;2022-12-29T14:23:49;4.35;;;1.20;;
76396;SDS011;66045;51.622;5.526;2022-12-29T14:26:36;3.63;;;1.20;;
76396;SDS011;66045;51.622;5.526;2022-12-29T14:29:41;4.72;;;1.00;;
76396;SDS011;66045;51.622;5.526;2022-12-29T14:34:52;5.30;;;1.40;;
76396;SDS011;66045;51.622;5.526;2022-12-29T14:39:49;5.40;;;1.30;;
76396;SDS011;66045;51.622;5.526;2022-12-29T14:42:31;4.38;;;1.20;;
76396;SDS011;66045;51.622;5.526;2022-12-29T14:47:41;5.50;;;1.60;;
76396;SDS011;66045;51.622;5.526;2022-12-29T14:50:13;3.95;;;1.20;;
76396;SDS011;66045;51.622;5.526;2022-12-29T14:57:40;6.90;;;1.55;;
76396;SDS011;66045;51.622;5.526;2022-12-29T15:02:38;4.95;;;1.10;;
76396;SDS011;66045;51.622;5.526;2022-12-29T15:05:06;5.13;;;1.17;;
76396;SDS011;66045;51.622;5.526;2022-12-29T15:07:57;5.43;;;1.38;;
76396;SDS011;66045;51.622;5.526;2022-12-29T15:10:24;3.15;;;1.00;;
76396;SDS011;66045;51.622;5.526;2022-12-29T15:12:53;6.20;;;1.40;;
76396;SDS011;66045;51.622;5.526;2022-12-29T15:15:21;2.75;;;0.88;;
76396;SDS011;66045;51.622;5.526;2022-12-29T15:17:51;3.35;;;1.10;;
76396;SDS011;66045;51.622;5.526;2022-12-29T15:20:29;3.28;;;0.82;;
76396;SDS011;66045;51.622;5.526;2022-12-29T15:25:55;4.93;;;1.27;;
76396;SDS011;66045;51.622;5.526;2022-12-29T15:28:23;5.57;;;1.52;;
76396;SDS011;66045;51.622;5.526;2022-12-29T15:30:50;4.72;;;1.15;;
76396;SDS011;66045;51.622;5.526;2022-12-29T15:33:24;3.30;;;1.10;;
76396;SDS011;66045;51.622;5.526;2022-12-29T15:35:53;7.80;;;1.10;;
76396;SDS011;66045;51.622;5.526;2022-12-29T15:38:27;4.00;;;1.10;;
76396;SDS011;66045;51.622;5.526;2022-12-29T15:40:55;4.35;;;1.20;;
76396;SDS011;66045;51.622;5.526;2022-12-29T15:46:23;6.30;;;1.40;;
76396;SDS011;66045;51.622;5.526;2022-12-29T15:48:48;6.75;;;1.30;;
76396;SDS011;66045;51.622;5.526;2022-12-29T15:51:18;4.63;;;1.48;;
76396;SDS011;66045;51.622;5.526;2022-12-29T15:53:50;6.63;;;1.30;;
76396;SDS011;66045;51.622;5.526;2022-12-29T15:56:17;4.43;;;1.17;;
76396;SDS011;66045;51.622;5.526;2022-12-29T15:58:44;10.35;;;1.30;;
76396;SDS011;66045;51.622;5.526;2022-12-29T16:03:47;6.55;;;1.20;;
76396;SDS011;66045;51.622;5.526;2022-12-29T16:06:28;7.20;;;1.63;;
76396;SDS011;66045;51.622;5.526;2022-12-29T16:09:14;9.23;;;1.88;;
76396;SDS011;66045;51.622;5.526;2022-12-29T16:11:53;5.55;;;1.10;;
76396;SDS011;66045;51.622;5.526;2022-12-29T16:14:24;4.53;;;1.30;;
76396;SDS011;66045;51.622;5.526;2022-12-29T16:16:57;5.30;;;1.50;;
76396;SDS011;66045;51.622;5.526;2022-12-29T16:19:27;5.68;;;1.15;;
76396;SDS011;66045;51.622;5.526;2022-12-29T16:24:23;5.22;;;1.20;;
76396;SDS011;66045;51.622;5.526;2022-12-29T16:27:06;9.00;;;1.13;;
76396;SDS011;66045;51.622;5.526;2022-12-29T16:29:53;9.48;;;0.95;;
76396;SDS011;66045;51.622;5.526;2022-12-29T16:32:24;7.82;;;1.48;;
76396;SDS011;66045;51.622;5.526;2022-12-29T16:34:52;3.53;;;1.00;;
76396;SDS011;66045;51.622;5.526;2022-12-29T16:37:34;7.35;;;1.05;;
76396;SDS011;66045;51.622;5.526;2022-12-29T16:40:22;5.55;;;1.00;;
76396;SDS011;66045;51.622;5.526;2022-12-29T16:42:53;3.50;;;1.02;;
76396;SDS011;66045;51.622;5.526;2022-12-29T16:48:06;5.65;;;1.20;;
76396;SDS011;66045;51.622;5.526;2022-12-29T16:50:31;2.17;;;0.90;;
76396;SDS011;66045;51.622;5.526;2022-12-29T16:52:58;4.35;;;1.27;;
76396;SDS011;66045;51.622;5.526;2022-12-29T16:55:25;3.17;;;1.10;;
76396;SDS011;66045;51.622;5.526;2022-12-29T16:57:51;3.90;;;0.95;;
76396;SDS011;66045;51.622;5.526;2022-12-29T17:00:22;2.63;;;1.15;;
76396;SDS011;66045;51.622;5.526;2022-12-29T17:02:49;4.47;;;1.13;;
76396;SDS011;66045;51.622;5.526;2022-12-29T17:05:18;3.80;;;0.82;;
76396;SDS011;66045;51.622;5.526;2022-12-29T17:07:44;5.25;;;1.25;;
76396;SDS011;66045;51.622;5.526;2022-12-29T17:10:11;2.50;;;1.00;;
76396;SDS011;66045;51.622;5.526;2022-12-29T17:12:38;4.10;;;0.95;;
76396;SDS011;66045;51.622;5.526;2022-12-29T17:15:06;4.85;;;1.30;;
76396;SDS011;66045;51.622;5.526;2022-12-29T17:17:39;3.17;;;1.05;;
76396;SDS011;66045;51.622;5.526;2022-12-29T17:20:15;3.50;;;0.90;;
76396;SDS011;66045;51.622;5.526;2022-12-29T17:22:45;2.55;;;1.13;;
76396;SDS011;66045;51.622;5.526;2022-12-29T17:25:12;3.00;;;1.00;;
76396;SDS011;66045;51.622;5.526;2022-12-29T17:27:43;3.40;;;0.98;;
76396;SDS011;66045;51.622;5.526;2022-12-29T17:30:21;3.50;;;0.90;;
76396;SDS011;66045;51.622;5.526;2022-12-29T17:32:57;3.83;;;1.00;;
76396;SDS011;66045;51.622;5.526;2022-12-29T17:35:25;4.95;;;1.45;;
76396;SDS011;66045;51.622;5.526;2022-12-29T17:37:52;2.20;;;0.70;;
76396;SDS011;66045;51.622;5.526;2022-12-29T17:40:21;3.30;;;0.95;;
76396;SDS011;66045;51.622;5.526;2022-12-29T17:42:51;4.80;;;1.13;;
76396;SDS011;66045;51.622;5.526;2022-12-29T17:45:25;2.30;;;1.17;;
76396;SDS011;66045;51.622;5.526;2022-12-29T17:47:52;4.05;;;0.90;;
76396;SDS011;66045;51.622;5.526;2022-12-29T17:50:19;4.18;;;1.25;;
76396;SDS011;66045;51.622;5.526;2022-12-29T17:52:50;2.67;;;1.08;;
76396;SDS011;66045;51.622;5.526;2022-12-29T17:55:18;2.92;;;0.82;;
76396;SDS011;66045;51.622;5.526;2022-12-29T17:57:45;3.80;;;1.23;;
76396;SDS011;66045;51.622;5.526;2022-12-29T18:00:15;2.25;;;0.90;;
76396;SDS011;66045;51.622;5.526;2022-12-29T18:02:42;4.55;;;1.08;;